Ocean King — CZ2591 — position and weather

sailwx.info

Track history (hours):
 
Tides and Currents Weather Stations Pressure Air Temp Water Temp Dewpoint Dewpoint Depression Visibility Wind Speed Wind Dir Waves Ship Positions

Ocean King

Last reported at 2017-Jun-25 20:11 UTC. Time now 2017-Jun-29 02:15 UTC.
Position N 48°56' W 125°32'.

Length 29 m; draft 4 m.

Type: Fishing. MMSI: 316003514.

Date/timePositionNaut miles runAvg speedWind from/ knotsBaromVisibWave heightAir tempDewpointWater temp
2017-Jun-25 20:11N 48°56' W 125°32'0 0.0
2017-Jun-25 20:00N 48°56' W 125°32'0 0.0
2017-Jun-25 19:30N 48°56' W 125°32'0 0.0
2017-Jun-25 19:00N 48°56' W 125°32'0 0.0
2017-Jun-25 18:30N 48°56' W 125°32'0 0.2
2017-Jun-25 18:00N 48°56' W 125°32'0 0.0
2017-Jun-25 17:30N 48°56' W 125°32'0 0.0
2017-Jun-25 17:00N 48°56' W 125°32'0 0.0
2017-Jun-25 16:30N 48°56' W 125°32'0 0.2
2017-Jun-25 16:00N 48°56' W 125°32'0 0.0
2017-Jun-25 15:30N 48°56' W 125°32'0 0.0
2017-Jun-25 15:00N 48°56' W 125°32'0 0.0
2017-Jun-25 14:30N 48°56' W 125°32'3 2.7
2017-Jun-25 13:30N 48°56' W 125°36'3 5.7
2017-Jun-25 13:00N 48°57' W 125°40'3 5.8
2017-Jun-25 12:30N 48°58' W 125°45'3 6.0
2017-Jun-25 12:00N 48°59' W 125°49'3 6.0
2017-Jun-25 11:30N 49°00' W 125°53'3 5.9
2017-Jun-25 11:00N 49°01' W 125°57'3 5.9
2017-Jun-25 10:30N 49°02' W 126°02'3 6.2
2017-Jun-25 10:00N 49°03' W 126°06'3 6.2
2017-Jun-25 09:30N 49°04' W 126°10'3 6.0
2017-Jun-25 09:00N 49°05' W 126°15'3 6.1
2017-Jun-25 08:31N 49°07' W 126°18'3 6.1
2017-Jun-25 08:00N 49°08' W 126°23'3 6.1
2017-Jun-25 07:30N 49°09' W 126°27'3 6.2
2017-Jun-25 07:01N 49°10' W 126°32'3 6.2
2017-Jun-25 06:29N 49°11' W 126°36'3 6.3
2017-Jun-25 06:01N 49°12' W 126°40'3 6.2
2017-Jun-25 05:30N 49°13' W 126°45'3 6.0
2017-Jun-25 05:00N 49°15' W 126°49'3 6.1
2017-Jun-25 04:30N 49°16' W 126°54'3 6.2
2017-Jun-25 03:58N 49°17' W 126°58'3 6.2
2017-Jun-25 03:26N 49°18' W 127°03'4 2.9
2017-Jun-25 01:58N 49°17' W 127°10'4 8.1
2017-Jun-25 01:29N 49°15' W 127°05'4 8.0
2017-Jun-25 01:00N 49°12' W 127°02'4 8.2
2017-Jun-25 00:28N 49°09' W 126°57'4 8.3
2017-Jun-25 00:00N 49°06' W 126°53'4 8.2
2017-Jun-24 23:30N 49°02' W 126°49'5 7.8
2017-Jun-24 22:53N 48°60' W 126°43'4 8.0
2017-Jun-24 22:26N 48°60' W 126°38'3 6.7
2017-Jun-24 21:59N 48°59' W 126°34'4 8.4
2017-Jun-24 21:28N 48°54' W 126°32'4 8.3
2017-Jun-24 20:57N 48°50' W 126°33'4 8.1
2017-Jun-24 20:29N 48°48' W 126°29'4 8.6
2017-Jun-24 20:00N 48°47' W 126°23'4 8.2
2017-Jun-24 19:30N 48°45' W 126°18'4 7.1
2017-Jun-24 19:00N 48°41' W 126°16'3 6.3
2017-Jun-24 18:30N 48°39' W 126°13'3 6.7
2017-Jun-24 18:00N 48°36' W 126°10'3 6.1
2017-Jun-24 17:30N 48°33' W 126°11'3 6.9
2017-Jun-24 17:00N 48°30' W 126°10'3 5.9
2017-Jun-24 16:30N 48°27' W 126°09'3 6.0
2017-Jun-24 15:59N 48°24' W 126°06'2 4.4
2017-Jun-24 15:30N 48°26' W 126°08'4 7.4
2017-Jun-24 15:00N 48°29' W 126°11'7 6.7
2017-Jun-24 14:00N 48°36' W 126°10'3 6.3
2017-Jun-24 13:30N 48°39' W 126°13'3 6.1
2017-Jun-24 13:00N 48°40' W 126°16'3 5.7
2017-Jun-24 12:30N 48°42' W 126°13'0 0.5
2017-Jun-24 12:00N 48°43' W 126°13'0 0.6
2017-Jun-24 11:30N 48°43' W 126°13'0 0.7
2017-Jun-24 11:00N 48°43' W 126°13'0 0.8
2017-Jun-24 10:30N 48°44' W 126°13'0 0.8
2017-Jun-24 10:00N 48°44' W 126°13'0 0.8
2017-Jun-24 09:30N 48°44' W 126°13'0 1.0
2017-Jun-24 09:00N 48°45' W 126°14'0 0.3
2017-Jun-24 08:30N 48°45' W 126°14'3 5.4
2017-Jun-24 08:00N 48°42' W 126°14'3 5.6
2017-Jun-24 07:30N 48°39' W 126°14'3 5.5
2017-Jun-24 07:00N 48°37' W 126°13'3 5.4
2017-Jun-24 06:30N 48°34' W 126°13'3 5.2
2017-Jun-24 06:00N 48°31' W 126°13'3 5.3
2017-Jun-24 05:30N 48°29' W 126°13'2 4.0
2017-Jun-24 05:00N 48°27' W 126°10'0 0.8
2017-Jun-24 04:30N 48°28' W 126°10'1 1.9
2017-Jun-24 04:00N 48°27' W 126°08'1 2.2
2017-Jun-24 03:30N 48°26' W 126°08'1 2.2
2017-Jun-24 03:00N 48°25' W 126°07'1 2.2
2017-Jun-24 02:30N 48°24' W 126°06'1 1.6
2017-Jun-24 02:00N 48°24' W 126°06'4 7.1
2017-Jun-24 01:31N 48°27' W 126°08'3 5.9
2017-Jun-24 01:00N 48°28' W 126°04'1 1.6
2017-Jun-24 00:30N 48°28' W 126°05'1 1.7
2017-Jun-24 00:00N 48°27' W 126°07'1 1.8
2017-Jun-23 23:30N 48°27' W 126°08'1 1.9
2017-Jun-23 23:00N 48°28' W 126°09'1 2.6
2017-Jun-23 22:30N 48°29' W 126°10'1 2.7
2017-Jun-23 22:00N 48°30' W 126°10'1 2.9
2017-Jun-23 21:30N 48°32' W 126°10'1 2.5
2017-Jun-23 21:00N 48°33' W 126°10'1 2.5
2017-Jun-23 20:30N 48°34' W 126°10'1 2.5
2017-Jun-23 20:00N 48°35' W 126°10'1 2.4
2017-Jun-23 19:30N 48°36' W 126°11'1 2.3
2017-Jun-23 19:00N 48°37' W 126°12'1 2.8
2017-Jun-23 18:30N 48°39' W 126°13'0 1.0
2017-Jun-23 18:00N 48°39' W 126°13'1 2.7
2017-Jun-23 17:30N 48°38' W 126°13'3 6.8
2017-Jun-23 17:00N 48°40' W 126°16'5 9.6
2017-Jun-23 16:30N 48°43' W 126°22'5 9.5
2017-Jun-23 16:00N 48°45' W 126°29'5 9.0
2017-Jun-23 15:29N 48°49' W 126°32'4 9.1
2017-Jun-23 15:00N 48°54' W 126°33'1 0.6
2017-Jun-23 14:00N 48°54' W 126°32'3 5.4
2017-Jun-23 13:28N 48°51' W 126°34'2 4.3
2017-Jun-23 13:00N 48°53' W 126°32'0 0.5
2017-Jun-23 12:30N 48°53' W 126°33'3 6.6
2017-Jun-23 12:00N 48°53' W 126°27'4 7.8
2017-Jun-23 11:30N 48°53' W 126°22'4 7.8
2017-Jun-23 11:00N 48°53' W 126°16'4 7.8
2017-Jun-23 10:30N 48°53' W 126°10'4 7.7
2017-Jun-23 10:00N 48°54' W 126°04'4 7.7
2017-Jun-23 09:30N 48°54' W 125°58'4 7.9
2017-Jun-23 09:00N 48°54' W 125°52'4 7.5
2017-Jun-23 08:30N 48°54' W 125°46'3 6.9
2017-Jun-23 08:00N 48°54' W 125°41'4 7.0
2017-Jun-23 07:30N 48°54' W 125°36'3 6.5
2017-Jun-23 07:00N 48°55' W 125°31'1 2.8
2017-Jun-23 06:30N 48°56' W 125°32'0 0.0
2017-Jun-23 06:00N 48°56' W 125°32'0 0.0
2017-Jun-23 05:30N 48°56' W 125°32'0 0.0
2017-Jun-23 05:00N 48°56' W 125°32'0 0.3
2017-Jun-23 04:30N 48°56' W 125°32'0 0.0
2017-Jun-23 04:00N 48°56' W 125°32'0 0.0
2017-Jun-23 03:30N 48°56' W 125°32'0 0.0
2017-Jun-23 03:00N 48°56' W 125°32'0 0.0
2017-Jun-23 02:30N 48°56' W 125°32'0 0.0
2017-Jun-23 02:00N 48°56' W 125°32'0 0.0
2017-Jun-23 01:30N 48°56' W 125°32'0 0.0
2017-Jun-23 01:00N 48°56' W 125°32'0 0.0
2017-Jun-23 00:30N 48°56' W 125°32'0 0.0
2017-Jun-23 00:00N 48°56' W 125°32'0 0.0
2017-Jun-22 23:30N 48°56' W 125°32'0 0.0
2017-Jun-22 23:00N 48°56' W 125°32'0 0.0
2017-Jun-22 22:30N 48°56' W 125°32'0 0.0
2017-Jun-22 22:00N 48°56' W 125°32'0 0.0
2017-Jun-22 21:30N 48°56' W 125°32'0 0.0
2017-Jun-22 21:00N 48°56' W 125°32'0 0.0
2017-Jun-22 20:30N 48°56' W 125°32'0 0.0
2017-Jun-22 20:00N 48°56' W 125°32'0 0.0
2017-Jun-22 19:30N 48°56' W 125°32'0 0.0
2017-Jun-22 19:00N 48°56' W 125°32'0 0.0
2017-Jun-22 18:30N 48°56' W 125°32'0 0.0
2017-Jun-22 18:00N 48°56' W 125°32'0 0.0
2017-Jun-22 17:30N 48°56' W 125°32'0 0.0
2017-Jun-22 17:00N 48°56' W 125°32'0 0.0
2017-Jun-22 16:30N 48°56' W 125°32'0 0.0
2017-Jun-22 16:00N 48°56' W 125°32'0 0.0
2017-Jun-22 15:30N 48°56' W 125°32'0 0.0
2017-Jun-22 15:00N 48°56' W 125°32'0 0.0
2017-Jun-22 14:00N 48°56' W 125°32'0 0.0
2017-Jun-22 13:30N 48°56' W 125°32'0 0.0
2017-Jun-22 13:00N 48°56' W 125°32'0 0.0
2017-Jun-22 12:30N 48°56' W 125°32'0 0.0
2017-Jun-22 12:00N 48°56' W 125°32'0 0.0
2017-Jun-22 11:30N 48°56' W 125°32'0 0.0
2017-Jun-22 11:00N 48°56' W 125°32'0 0.0
2017-Jun-22 10:30N 48°56' W 125°32'0 0.0
2017-Jun-22 10:00N 48°56' W 125°32'0 0.0
2017-Jun-22 09:30N 48°56' W 125°32'0 0.0
2017-Jun-22 09:00N 48°56' W 125°32'0 0.0
2017-Jun-22 08:30N 48°56' W 125°32'0 0.0
2017-Jun-22 08:00N 48°56' W 125°32'0 0.0
2017-Jun-22 07:30N 48°56' W 125°32'0 0.0
2017-Jun-22 07:00N 48°56' W 125°32'0 0.0
2017-Jun-22 06:30N 48°56' W 125°32'0 0.0
2017-Jun-22 06:00N 48°56' W 125°32'0 0.0
2017-Jun-22 05:30N 48°56' W 125°32'0 0.0
2017-Jun-22 05:00N 48°56' W 125°32'0 0.0
2017-Jun-22 04:30N 48°56' W 125°32'0 0.0
2017-Jun-22 04:00N 48°56' W 125°32'0 0.0
2017-Jun-22 03:30N 48°56' W 125°32'0 0.0
2017-Jun-22 03:00N 48°56' W 125°32'0 0.0
2017-Jun-22 02:30N 48°56' W 125°32'0 0.0
2017-Jun-22 02:00N 48°56' W 125°32'0 0.0
2017-Jun-22 01:30N 48°56' W 125°32'0 0.0
2017-Jun-22 01:00N 48°56' W 125°32'0 0.0
2017-Jun-22 00:30N 48°56' W 125°32'0 0.3
2017-Jun-22 00:00N 48°56' W 125°32'0 0.0
2017-Jun-21 23:30N 48°56' W 125°32'0 0.0
2017-Jun-21 23:00N 48°56' W 125°32'0 0.0
2017-Jun-21 22:30N 48°56' W 125°32'0 0.0
2017-Jun-21 22:00N 48°56' W 125°32'0 0.0
2017-Jun-21 21:30N 48°56' W 125°32'0 0.0
2017-Jun-21 21:00N 48°56' W 125°32'0 0.0
2017-Jun-21 20:30N 48°56' W 125°32'0 0.0
2017-Jun-21 20:00N 48°56' W 125°32'0 0.0
2017-Jun-21 19:30N 48°56' W 125°32'0 0.0
2017-Jun-21 19:00N 48°56' W 125°32'0 0.0
2017-Jun-21 18:30N 48°56' W 125°32'0 0.0
2017-Jun-21 18:00N 48°56' W 125°32'0 0.0
2017-Jun-21 17:30N 48°56' W 125°32'0 0.0
2017-Jun-21 17:00N 48°56' W 125°32'0 0.0
2017-Jun-21 16:30N 48°56' W 125°32'0 0.0
2017-Jun-21 16:00N 48°56' W 125°32'0 0.0
2017-Jun-21 15:30N 48°56' W 125°32'0 0.0
2017-Jun-21 15:00N 48°56' W 125°32'0 0.0
2017-Jun-21 14:30N 48°56' W 125°32'0 0.0
2017-Jun-21 13:30N 48°56' W 125°32'0 0.0
2017-Jun-21 13:00N 48°56' W 125°32'0 0.0
2017-Jun-21 12:30N 48°56' W 125°32'0 0.0
2017-Jun-21 12:00N 48°56' W 125°32'0 0.0
2017-Jun-21 11:30N 48°56' W 125°32'0 0.0
2017-Jun-21 11:00N 48°56' W 125°32'0 0.0
2017-Jun-21 10:30N 48°56' W 125°32'0 0.0
2017-Jun-21 10:00N 48°56' W 125°32'0 0.0
2017-Jun-21 09:30N 48°56' W 125°32'0 0.0
2017-Jun-21 09:00N 48°56' W 125°32'0 0.0
2017-Jun-21 08:30N 48°56' W 125°32'0 0.0
2017-Jun-21 08:00N 48°56' W 125°32'0 0.0
2017-Jun-21 07:30N 48°56' W 125°32'0 0.0
2017-Jun-21 07:00N 48°56' W 125°32'0 0.0
2017-Jun-21 06:30N 48°56' W 125°32'0 0.0
2017-Jun-21 06:00N 48°56' W 125°32'0 0.0
2017-Jun-21 05:30N 48°56' W 125°32'0 0.0
2017-Jun-21 05:00N 48°56' W 125°32'0 0.0
2017-Jun-21 04:30N 48°56' W 125°32'0 0.0
2017-Jun-21 04:00N 48°56' W 125°32'0 0.0
2017-Jun-21 03:30N 48°56' W 125°32'0 0.0
2017-Jun-21 03:00N 48°56' W 125°32'0 0.0
2017-Jun-21 02:30N 48°56' W 125°32'0 0.0
2017-Jun-21 02:00N 48°56' W 125°32'0 0.0
2017-Jun-21 01:30N 48°56' W 125°32'0 0.0
2017-Jun-21 01:00N 48°56' W 125°32'0 0.0
2017-Jun-21 00:30N 48°56' W 125°32'1 2.7
2017-Jun-21 00:00N 48°55' W 125°33'4 9.0
2017-Jun-20 23:30N 48°56' W 125°40'4 8.5
2017-Jun-20 23:01N 48°56' W 125°46'4 8.1
2017-Jun-20 22:30N 48°57' W 125°52'4 8.1
2017-Jun-20 22:01N 48°57' W 125°58'4 8.0
2017-Jun-20 21:30N 48°58' W 126°04'4 7.7
2017-Jun-20 21:00N 48°59' W 126°10'4 7.6
2017-Jun-20 20:30N 48°59' W 126°16'4 7.9
2017-Jun-20 19:57N 48°60' W 126°22'8 1.2
2017-Jun-20 12:49N 48°59' W 126°35'1 0.0
2017-Jun-19 21:02N 48°60' W 126°36'0 2.5
2017-Jun-19 21:00N 48°60' W 126°36'18 4.1
2017-Jun-19 16:40N 49°09' W 126°59'3 8.9
2017-Jun-19 16:21N 49°12' W 127°01'3 1.7
2017-Jun-19 14:30N 49°14' W 127°04'4 8.2
2017-Jun-19 14:00N 49°11' W 126°59'10 8.0
2017-Jun-19 12:47N 49°05' W 126°48'3 8.6
2017-Jun-19 12:30N 49°05' W 126°45'5 7.4
2017-Jun-19 11:53N 49°04' W 126°38'3 7.5
2017-Jun-19 11:27N 49°03' W 126°33'4 7.6
2017-Jun-19 11:00N 49°02' W 126°28'4 7.6
2017-Jun-19 10:30N 49°01' W 126°22'4 7.6
2017-Jun-19 10:00N 49°01' W 126°17'4 7.4
2017-Jun-19 09:30N 49°00' W 126°11'4 7.3
2017-Jun-19 09:00N 48°59' W 126°06'4 7.3
2017-Jun-19 08:30N 48°59' W 126°00'4 7.1
2017-Jun-19 08:00N 48°58' W 125°55'3 6.9
2017-Jun-19 07:30N 48°57' W 125°50'4 7.2
2017-Jun-19 07:00N 48°57' W 125°44'4 7.5
2017-Jun-19 06:30N 48°56' W 125°39'3 6.9
2017-Jun-19 06:00N 48°55' W 125°34'2 3.1
2017-Jun-19 05:30N 48°56' W 125°32'0 0.0
2017-Jun-19 05:00N 48°56' W 125°32'0 0.0
2017-Jun-19 04:30N 48°56' W 125°32'0 0.0
2017-Jun-19 04:00N 48°56' W 125°32'0 0.0
2017-Jun-19 03:30N 48°56' W 125°32'0 0.0
2017-Jun-19 03:00N 48°56' W 125°32'0 0.0
2017-Jun-19 02:30N 48°56' W 125°32'0 0.0
2017-Jun-19 02:00N 48°56' W 125°32'0 0.0
2017-Jun-19 01:30N 48°56' W 125°32'0 0.0
2017-Jun-19 01:00N 48°56' W 125°32'0 0.0
2017-Jun-19 00:30N 48°56' W 125°32'0 0.0
2017-Jun-19 00:00N 48°56' W 125°32'0 0.0
2017-Jun-18 23:30N 48°56' W 125°32'0 0.0
2017-Jun-18 23:00N 48°56' W 125°32'0 0.0
2017-Jun-18 22:30N 48°56' W 125°32'0 0.2
2017-Jun-18 22:00N 48°56' W 125°32'0 0.0
2017-Jun-18 21:30N 48°56' W 125°32'0 0.2
2017-Jun-18 21:00N 48°56' W 125°32'0 0.0
2017-Jun-18 20:30N 48°56' W 125°32'0 0.0
2017-Jun-18 20:00N 48°56' W 125°32'0 0.0
2017-Jun-18 19:30N 48°56' W 125°32'0 0.0
2017-Jun-18 19:00N 48°56' W 125°32'0 0.0
2017-Jun-18 18:30N 48°56' W 125°32'0 0.0
2017-Jun-18 18:00N 48°56' W 125°32'0 0.0
2017-Jun-18 17:30N 48°56' W 125°32'0 0.0
2017-Jun-18 17:00N 48°56' W 125°32'0 0.0
2017-Jun-18 16:30N 48°56' W 125°32'0 0.0
2017-Jun-18 16:00N 48°56' W 125°32'0 0.0
2017-Jun-18 15:30N 48°56' W 125°32'0 0.0
2017-Jun-18 15:00N 48°56' W 125°32'0 0.0
2017-Jun-18 14:00N 48°56' W 125°32'0 0.0
2017-Jun-18 13:30N 48°56' W 125°32'0 0.0
2017-Jun-18 13:00N 48°56' W 125°32'0 0.0
2017-Jun-18 12:30N 48°56' W 125°32'0 0.0
2017-Jun-18 12:00N 48°56' W 125°32'0 0.0
2017-Jun-18 11:30N 48°56' W 125°32'0 0.0
2017-Jun-18 11:00N 48°56' W 125°32'0 0.0
2017-Jun-18 10:30N 48°56' W 125°32'0 0.0
2017-Jun-18 10:00N 48°56' W 125°32'0 0.0
2017-Jun-18 09:30N 48°56' W 125°32'0 0.0
2017-Jun-18 09:00N 48°56' W 125°32'0 0.0
2017-Jun-18 08:30N 48°56' W 125°32'0 0.0
2017-Jun-18 08:00N 48°56' W 125°32'0 0.0
2017-Jun-18 07:30N 48°56' W 125°32'1 2.7
2017-Jun-18 07:00N 48°55' W 125°33'4 8.2
2017-Jun-18 06:30N 48°57' W 125°39'4 8.1
2017-Jun-18 06:00N 48°58' W 125°45'4 8.0
2017-Jun-18 05:30N 48°59' W 125°50'4 8.3
2017-Jun-18 05:00N 49°01' W 125°56'4 8.0
2017-Jun-18 04:30N 49°02' W 126°02'4 7.7
2017-Jun-18 04:00N 49°04' W 126°07'4 7.7
2017-Jun-18 03:30N 49°05' W 126°13'4 7.7
2017-Jun-18 03:00N 49°07' W 126°18'4 7.6
2017-Jun-18 02:30N 49°08' W 126°24'4 7.4
2017-Jun-18 02:00N 49°09' W 126°29'4 7.3
2017-Jun-18 01:30N 49°11' W 126°34'4 7.4
2017-Jun-18 01:00N 49°12' W 126°39'4 7.7
2017-Jun-18 00:30N 49°14' W 126°45'4 7.9
2017-Jun-18 00:00N 49°15' W 126°51'4 8.0
2017-Jun-17 23:29N 49°15' W 126°57'4 6.7
2017-Jun-17 22:57N 49°16' W 127°02'18 1.5
2017-Jun-17 11:02N 49°08' W 126°38'5 9.7
2017-Jun-17 10:32N 49°07' W 126°31'0 9.6
2017-Jun-17 10:30N 49°07' W 126°31'5 9.5
2017-Jun-17 09:59N 49°05' W 126°24'4 9.3
2017-Jun-17 09:30N 49°04' W 126°17'4 9.0
2017-Jun-17 09:00N 49°02' W 126°11'4 8.7
2017-Jun-17 08:30N 49°01' W 126°04'4 8.5
2017-Jun-17 08:00N 48°60' W 125°58'4 8.7
2017-Jun-17 07:30N 48°58' W 125°52'4 8.8
2017-Jun-17 07:00N 48°57' W 125°46'4 8.6
2017-Jun-17 06:30N 48°56' W 125°39'4 8.3
2017-Jun-17 06:00N 48°55' W 125°33'  
Track history (hours):
 
Tides and Currents Weather Stations Pressure Air Temp Water Temp Dewpoint Dewpoint Depression Visibility Wind Speed Wind Dir Waves Ship Positions

Ocean King

Last reported at 2017-Jun-25 20:11 UTC. Time now 2017-Jun-29 02:15 UTC.
Position N 48°56' W 125°32'.

Length 29 m; draft 4 m.

Type: Fishing. MMSI: 316003514.

Date/timePositionNaut miles runAvg speedWind from/ knotsBaromVisibWave heightAir tempDewpointWater temp
2017-Jun-25 20:11N 48°56' W 125°32'0 0.0
2017-Jun-25 20:00N 48°56' W 125°32'0 0.0
2017-Jun-25 19:30N 48°56' W 125°32'0 0.0
2017-Jun-25 19:00N 48°56' W 125°32'0 0.0
2017-Jun-25 18:30N 48°56' W 125°32'0 0.2
2017-Jun-25 18:00N 48°56' W 125°32'0 0.0
2017-Jun-25 17:30N 48°56' W 125°32'0 0.0
2017-Jun-25 17:00N 48°56' W 125°32'0 0.0
2017-Jun-25 16:30N 48°56' W 125°32'0 0.2
2017-Jun-25 16:00N 48°56' W 125°32'0 0.0
2017-Jun-25 15:30N 48°56' W 125°32'0 0.0
2017-Jun-25 15:00N 48°56' W 125°32'0 0.0
2017-Jun-25 14:30N 48°56' W 125°32'3 2.7
2017-Jun-25 13:30N 48°56' W 125°36'3 5.7
2017-Jun-25 13:00N 48°57' W 125°40'3 5.8
2017-Jun-25 12:30N 48°58' W 125°45'3 6.0
2017-Jun-25 12:00N 48°59' W 125°49'3 6.0
2017-Jun-25 11:30N 49°00' W 125°53'3 5.9
2017-Jun-25 11:00N 49°01' W 125°57'3 5.9
2017-Jun-25 10:30N 49°02' W 126°02'3 6.2
2017-Jun-25 10:00N 49°03' W 126°06'3 6.2
2017-Jun-25 09:30N 49°04' W 126°10'3 6.0
2017-Jun-25 09:00N 49°05' W 126°15'3 6.1
2017-Jun-25 08:31N 49°07' W 126°18'3 6.1
2017-Jun-25 08:00N 49°08' W 126°23'3 6.1
2017-Jun-25 07:30N 49°09' W 126°27'3 6.2
2017-Jun-25 07:01N 49°10' W 126°32'3 6.2
2017-Jun-25 06:29N 49°11' W 126°36'3 6.3
2017-Jun-25 06:01N 49°12' W 126°40'3 6.2
2017-Jun-25 05:30N 49°13' W 126°45'3 6.0
2017-Jun-25 05:00N 49°15' W 126°49'3 6.1
2017-Jun-25 04:30N 49°16' W 126°54'3 6.2
2017-Jun-25 03:58N 49°17' W 126°58'3 6.2
2017-Jun-25 03:26N 49°18' W 127°03'4 2.9
2017-Jun-25 01:58N 49°17' W 127°10'4 8.1
2017-Jun-25 01:29N 49°15' W 127°05'4 8.0
2017-Jun-25 01:00N 49°12' W 127°02'4 8.2
2017-Jun-25 00:28N 49°09' W 126°57'4 8.3
2017-Jun-25 00:00N 49°06' W 126°53'4 8.2
2017-Jun-24 23:30N 49°02' W 126°49'5 7.8
2017-Jun-24 22:53N 48°60' W 126°43'4 8.0
2017-Jun-24 22:26N 48°60' W 126°38'3 6.7
2017-Jun-24 21:59N 48°59' W 126°34'4 8.4
2017-Jun-24 21:28N 48°54' W 126°32'4 8.3
2017-Jun-24 20:57N 48°50' W 126°33'4 8.1
2017-Jun-24 20:29N 48°48' W 126°29'4 8.6
2017-Jun-24 20:00N 48°47' W 126°23'4 8.2
2017-Jun-24 19:30N 48°45' W 126°18'4 7.1
2017-Jun-24 19:00N 48°41' W 126°16'3 6.3
2017-Jun-24 18:30N 48°39' W 126°13'3 6.7
2017-Jun-24 18:00N 48°36' W 126°10'3 6.1
2017-Jun-24 17:30N 48°33' W 126°11'3 6.9
2017-Jun-24 17:00N 48°30' W 126°10'3 5.9
2017-Jun-24 16:30N 48°27' W 126°09'3 6.0
2017-Jun-24 15:59N 48°24' W 126°06'2 4.4
2017-Jun-24 15:30N 48°26' W 126°08'4 7.4
2017-Jun-24 15:00N 48°29' W 126°11'7 6.7
2017-Jun-24 14:00N 48°36' W 126°10'3 6.3
2017-Jun-24 13:30N 48°39' W 126°13'3 6.1
2017-Jun-24 13:00N 48°40' W 126°16'3 5.7
2017-Jun-24 12:30N 48°42' W 126°13'0 0.5
2017-Jun-24 12:00N 48°43' W 126°13'0 0.6
2017-Jun-24 11:30N 48°43' W 126°13'0 0.7
2017-Jun-24 11:00N 48°43' W 126°13'0 0.8
2017-Jun-24 10:30N 48°44' W 126°13'0 0.8
2017-Jun-24 10:00N 48°44' W 126°13'0 0.8
2017-Jun-24 09:30N 48°44' W 126°13'0 1.0
2017-Jun-24 09:00N 48°45' W 126°14'0 0.3
2017-Jun-24 08:30N 48°45' W 126°14'3 5.4
2017-Jun-24 08:00N 48°42' W 126°14'3 5.6
2017-Jun-24 07:30N 48°39' W 126°14'3 5.5
2017-Jun-24 07:00N 48°37' W 126°13'3 5.4
2017-Jun-24 06:30N 48°34' W 126°13'3 5.2
2017-Jun-24 06:00N 48°31' W 126°13'3 5.3
2017-Jun-24 05:30N 48°29' W 126°13'2 4.0
2017-Jun-24 05:00N 48°27' W 126°10'0 0.8
2017-Jun-24 04:30N 48°28' W 126°10'1 1.9
2017-Jun-24 04:00N 48°27' W 126°08'1 2.2
2017-Jun-24 03:30N 48°26' W 126°08'1 2.2
2017-Jun-24 03:00N 48°25' W 126°07'1 2.2
2017-Jun-24 02:30N 48°24' W 126°06'1 1.6
2017-Jun-24 02:00N 48°24' W 126°06'4 7.1
2017-Jun-24 01:31N 48°27' W 126°08'3 5.9
2017-Jun-24 01:00N 48°28' W 126°04'1 1.6
2017-Jun-24 00:30N 48°28' W 126°05'1 1.7
2017-Jun-24 00:00N 48°27' W 126°07'1 1.8
2017-Jun-23 23:30N 48°27' W 126°08'1 1.9
2017-Jun-23 23:00N 48°28' W 126°09'1 2.6
2017-Jun-23 22:30N 48°29' W 126°10'1 2.7
2017-Jun-23 22:00N 48°30' W 126°10'1 2.9
2017-Jun-23 21:30N 48°32' W 126°10'1 2.5
2017-Jun-23 21:00N 48°33' W 126°10'1 2.5
2017-Jun-23 20:30N 48°34' W 126°10'1 2.5
2017-Jun-23 20:00N 48°35' W 126°10'1 2.4
2017-Jun-23 19:30N 48°36' W 126°11'1 2.3
2017-Jun-23 19:00N 48°37' W 126°12'1 2.8
2017-Jun-23 18:30N 48°39' W 126°13'0 1.0
2017-Jun-23 18:00N 48°39' W 126°13'1 2.7
2017-Jun-23 17:30N 48°38' W 126°13'3 6.8
2017-Jun-23 17:00N 48°40' W 126°16'5 9.6
2017-Jun-23 16:30N 48°43' W 126°22'5 9.5
2017-Jun-23 16:00N 48°45' W 126°29'5 9.0
2017-Jun-23 15:29N 48°49' W 126°32'4 9.1
2017-Jun-23 15:00N 48°54' W 126°33'1 0.6
2017-Jun-23 14:00N 48°54' W 126°32'3 5.4
2017-Jun-23 13:28N 48°51' W 126°34'2 4.3
2017-Jun-23 13:00N 48°53' W 126°32'0 0.5
2017-Jun-23 12:30N 48°53' W 126°33'3 6.6
2017-Jun-23 12:00N 48°53' W 126°27'4 7.8
2017-Jun-23 11:30N 48°53' W 126°22'4 7.8
2017-Jun-23 11:00N 48°53' W 126°16'4 7.8
2017-Jun-23 10:30N 48°53' W 126°10'4 7.7
2017-Jun-23 10:00N 48°54' W 126°04'4 7.7
2017-Jun-23 09:30N 48°54' W 125°58'4 7.9
2017-Jun-23 09:00N 48°54' W 125°52'4 7.5
2017-Jun-23 08:30N 48°54' W 125°46'3 6.9
2017-Jun-23 08:00N 48°54' W 125°41'4 7.0
2017-Jun-23 07:30N 48°54' W 125°36'3 6.5
2017-Jun-23 07:00N 48°55' W 125°31'1 2.8
2017-Jun-23 06:30N 48°56' W 125°32'0 0.0
2017-Jun-23 06:00N 48°56' W 125°32'0 0.0
2017-Jun-23 05:30N 48°56' W 125°32'0 0.0
2017-Jun-23 05:00N 48°56' W 125°32'0 0.3
2017-Jun-23 04:30N 48°56' W 125°32'0 0.0
2017-Jun-23 04:00N 48°56' W 125°32'0 0.0
2017-Jun-23 03:30N 48°56' W 125°32'0 0.0
2017-Jun-23 03:00N 48°56' W 125°32'0 0.0
2017-Jun-23 02:30N 48°56' W 125°32'0 0.0
2017-Jun-23 02:00N 48°56' W 125°32'0 0.0
2017-Jun-23 01:30N 48°56' W 125°32'0 0.0
2017-Jun-23 01:00N 48°56' W 125°32'0 0.0
2017-Jun-23 00:30N 48°56' W 125°32'0 0.0
2017-Jun-23 00:00N 48°56' W 125°32'0 0.0
2017-Jun-22 23:30N 48°56' W 125°32'0 0.0
2017-Jun-22 23:00N 48°56' W 125°32'0 0.0
2017-Jun-22 22:30N 48°56' W 125°32'0 0.0
2017-Jun-22 22:00N 48°56' W 125°32'0 0.0
2017-Jun-22 21:30N 48°56' W 125°32'0 0.0
2017-Jun-22 21:00N 48°56' W 125°32'0 0.0
2017-Jun-22 20:30N 48°56' W 125°32'0 0.0
2017-Jun-22 20:00N 48°56' W 125°32'0 0.0
2017-Jun-22 19:30N 48°56' W 125°32'0 0.0
2017-Jun-22 19:00N 48°56' W 125°32'0 0.0
2017-Jun-22 18:30N 48°56' W 125°32'0 0.0
2017-Jun-22 18:00N 48°56' W 125°32'0 0.0
2017-Jun-22 17:30N 48°56' W 125°32'0 0.0
2017-Jun-22 17:00N 48°56' W 125°32'0 0.0
2017-Jun-22 16:30N 48°56' W 125°32'0 0.0
2017-Jun-22 16:00N 48°56' W 125°32'0 0.0
2017-Jun-22 15:30N 48°56' W 125°32'0 0.0
2017-Jun-22 15:00N 48°56' W 125°32'0 0.0
2017-Jun-22 14:00N 48°56' W 125°32'0 0.0
2017-Jun-22 13:30N 48°56' W 125°32'0 0.0
2017-Jun-22 13:00N 48°56' W 125°32'0 0.0
2017-Jun-22 12:30N 48°56' W 125°32'0 0.0
2017-Jun-22 12:00N 48°56' W 125°32'0 0.0
2017-Jun-22 11:30N 48°56' W 125°32'0 0.0
2017-Jun-22 11:00N 48°56' W 125°32'0 0.0
2017-Jun-22 10:30N 48°56' W 125°32'0 0.0
2017-Jun-22 10:00N 48°56' W 125°32'0 0.0
2017-Jun-22 09:30N 48°56' W 125°32'0 0.0
2017-Jun-22 09:00N 48°56' W 125°32'0 0.0
2017-Jun-22 08:30N 48°56' W 125°32'0 0.0
2017-Jun-22 08:00N 48°56' W 125°32'0 0.0
2017-Jun-22 07:30N 48°56' W 125°32'0 0.0
2017-Jun-22 07:00N 48°56' W 125°32'0 0.0
2017-Jun-22 06:30N 48°56' W 125°32'0 0.0
2017-Jun-22 06:00N 48°56' W 125°32'0 0.0
2017-Jun-22 05:30N 48°56' W 125°32'0 0.0
2017-Jun-22 05:00N 48°56' W 125°32'0 0.0
2017-Jun-22 04:30N 48°56' W 125°32'0 0.0
2017-Jun-22 04:00N 48°56' W 125°32'0 0.0
2017-Jun-22 03:30N 48°56' W 125°32'0 0.0
2017-Jun-22 03:00N 48°56' W 125°32'0 0.0
2017-Jun-22 02:30N 48°56' W 125°32'0 0.0
2017-Jun-22 02:00N 48°56' W 125°32'0 0.0
2017-Jun-22 01:30N 48°56' W 125°32'0 0.0
2017-Jun-22 01:00N 48°56' W 125°32'0 0.0
2017-Jun-22 00:30N 48°56' W 125°32'0 0.3
2017-Jun-22 00:00N 48°56' W 125°32'0 0.0
2017-Jun-21 23:30N 48°56' W 125°32'0 0.0
2017-Jun-21 23:00N 48°56' W 125°32'0 0.0
2017-Jun-21 22:30N 48°56' W 125°32'0 0.0
2017-Jun-21 22:00N 48°56' W 125°32'0 0.0
2017-Jun-21 21:30N 48°56' W 125°32'0 0.0
2017-Jun-21 21:00N 48°56' W 125°32'0 0.0
2017-Jun-21 20:30N 48°56' W 125°32'0 0.0
2017-Jun-21 20:00N 48°56' W 125°32'0 0.0
2017-Jun-21 19:30N 48°56' W 125°32'0 0.0
2017-Jun-21 19:00N 48°56' W 125°32'0 0.0
2017-Jun-21 18:30N 48°56' W 125°32'0 0.0
2017-Jun-21 18:00N 48°56' W 125°32'0 0.0
2017-Jun-21 17:30N 48°56' W 125°32'0 0.0
2017-Jun-21 17:00N 48°56' W 125°32'0 0.0
2017-Jun-21 16:30N 48°56' W 125°32'0 0.0
2017-Jun-21 16:00N 48°56' W 125°32'0 0.0
2017-Jun-21 15:30N 48°56' W 125°32'0 0.0
2017-Jun-21 15:00N 48°56' W 125°32'0 0.0
2017-Jun-21 14:30N 48°56' W 125°32'0 0.0
2017-Jun-21 13:30N 48°56' W 125°32'0 0.0
2017-Jun-21 13:00N 48°56' W 125°32'0 0.0
2017-Jun-21 12:30N 48°56' W 125°32'0 0.0
2017-Jun-21 12:00N 48°56' W 125°32'0 0.0
2017-Jun-21 11:30N 48°56' W 125°32'0 0.0
2017-Jun-21 11:00N 48°56' W 125°32'0 0.0
2017-Jun-21 10:30N 48°56' W 125°32'0 0.0
2017-Jun-21 10:00N 48°56' W 125°32'0 0.0
2017-Jun-21 09:30N 48°56' W 125°32'0 0.0
2017-Jun-21 09:00N 48°56' W 125°32'0 0.0
2017-Jun-21 08:30N 48°56' W 125°32'0 0.0
2017-Jun-21 08:00N 48°56' W 125°32'0 0.0
2017-Jun-21 07:30N 48°56' W 125°32'0 0.0
2017-Jun-21 07:00N 48°56' W 125°32'0 0.0
2017-Jun-21 06:30N 48°56' W 125°32'0 0.0
2017-Jun-21 06:00N 48°56' W 125°32'0 0.0
2017-Jun-21 05:30N 48°56' W 125°32'0 0.0
2017-Jun-21 05:00N 48°56' W 125°32'0 0.0
2017-Jun-21 04:30N 48°56' W 125°32'0 0.0
2017-Jun-21 04:00N 48°56' W 125°32'0 0.0
2017-Jun-21 03:30N 48°56' W 125°32'0 0.0
2017-Jun-21 03:00N 48°56' W 125°32'0 0.0
2017-Jun-21 02:30N 48°56' W 125°32'0 0.0
2017-Jun-21 02:00N 48°56' W 125°32'0 0.0
2017-Jun-21 01:30N 48°56' W 125°32'0 0.0
2017-Jun-21 01:00N 48°56' W 125°32'0 0.0
2017-Jun-21 00:30N 48°56' W 125°32'1 2.7
2017-Jun-21 00:00N 48°55' W 125°33'4 9.0
2017-Jun-20 23:30N 48°56' W 125°40'4 8.5
2017-Jun-20 23:01N 48°56' W 125°46'4 8.1
2017-Jun-20 22:30N 48°57' W 125°52'4 8.1
2017-Jun-20 22:01N 48°57' W 125°58'4 8.0
2017-Jun-20 21:30N 48°58' W 126°04'4 7.7
2017-Jun-20 21:00N 48°59' W 126°10'4 7.6
2017-Jun-20 20:30N 48°59' W 126°16'4 7.9
2017-Jun-20 19:57N 48°60' W 126°22'8 1.2
2017-Jun-20 12:49N 48°59' W 126°35'1 0.0
2017-Jun-19 21:02N 48°60' W 126°36'0 2.5
2017-Jun-19 21:00N 48°60' W 126°36'18 4.1
2017-Jun-19 16:40N 49°09' W 126°59'3 8.9
2017-Jun-19 16:21N 49°12' W 127°01'3 1.7
2017-Jun-19 14:30N 49°14' W 127°04'4 8.2
2017-Jun-19 14:00N 49°11' W 126°59'10 8.0
2017-Jun-19 12:47N 49°05' W 126°48'3 8.6
2017-Jun-19 12:30N 49°05' W 126°45'5 7.4
2017-Jun-19 11:53N 49°04' W 126°38'3 7.5
2017-Jun-19 11:27N 49°03' W 126°33'4 7.6
2017-Jun-19 11:00N 49°02' W 126°28'4 7.6
2017-Jun-19 10:30N 49°01' W 126°22'4 7.6
2017-Jun-19 10:00N 49°01' W 126°17'4 7.4
2017-Jun-19 09:30N 49°00' W 126°11'4 7.3
2017-Jun-19 09:00N 48°59' W 126°06'4 7.3
2017-Jun-19 08:30N 48°59' W 126°00'4 7.1
2017-Jun-19 08:00N 48°58' W 125°55'3 6.9
2017-Jun-19 07:30N 48°57' W 125°50'4 7.2
2017-Jun-19 07:00N 48°57' W 125°44'4 7.5
2017-Jun-19 06:30N 48°56' W 125°39'3 6.9
2017-Jun-19 06:00N 48°55' W 125°34'2 3.1
2017-Jun-19 05:30N 48°56' W 125°32'0 0.0
2017-Jun-19 05:00N 48°56' W 125°32'0 0.0
2017-Jun-19 04:30N 48°56' W 125°32'0 0.0
2017-Jun-19 04:00N 48°56' W 125°32'0 0.0
2017-Jun-19 03:30N 48°56' W 125°32'0 0.0
2017-Jun-19 03:00N 48°56' W 125°32'0 0.0
2017-Jun-19 02:30N 48°56' W 125°32'0 0.0
2017-Jun-19 02:00N 48°56' W 125°32'0 0.0
2017-Jun-19 01:30N 48°56' W 125°32'0 0.0
2017-Jun-19 01:00N 48°56' W 125°32'0 0.0
2017-Jun-19 00:30N 48°56' W 125°32'0 0.0
2017-Jun-19 00:00N 48°56' W 125°32'0 0.0
2017-Jun-18 23:30N 48°56' W 125°32'0 0.0
2017-Jun-18 23:00N 48°56' W 125°32'0 0.0
2017-Jun-18 22:30N 48°56' W 125°32'0 0.2
2017-Jun-18 22:00N 48°56' W 125°32'0 0.0
2017-Jun-18 21:30N 48°56' W 125°32'0 0.2
2017-Jun-18 21:00N 48°56' W 125°32'0 0.0
2017-Jun-18 20:30N 48°56' W 125°32'0 0.0
2017-Jun-18 20:00N 48°56' W 125°32'0 0.0
2017-Jun-18 19:30N 48°56' W 125°32'0 0.0
2017-Jun-18 19:00N 48°56' W 125°32'0 0.0
2017-Jun-18 18:30N 48°56' W 125°32'0 0.0
2017-Jun-18 18:00N 48°56' W 125°32'0 0.0
2017-Jun-18 17:30N 48°56' W 125°32'0 0.0
2017-Jun-18 17:00N 48°56' W 125°32'0 0.0
2017-Jun-18 16:30N 48°56' W 125°32'0 0.0
2017-Jun-18 16:00N 48°56' W 125°32'0 0.0
2017-Jun-18 15:30N 48°56' W 125°32'0 0.0
2017-Jun-18 15:00N 48°56' W 125°32'0 0.0
2017-Jun-18 14:00N 48°56' W 125°32'0 0.0
2017-Jun-18 13:30N 48°56' W 125°32'0 0.0
2017-Jun-18 13:00N 48°56' W 125°32'0 0.0
2017-Jun-18 12:30N 48°56' W 125°32'0 0.0
2017-Jun-18 12:00N 48°56' W 125°32'0 0.0
2017-Jun-18 11:30N 48°56' W 125°32'0 0.0
2017-Jun-18 11:00N 48°56' W 125°32'0 0.0
2017-Jun-18 10:30N 48°56' W 125°32'0 0.0
2017-Jun-18 10:00N 48°56' W 125°32'0 0.0
2017-Jun-18 09:30N 48°56' W 125°32'0 0.0
2017-Jun-18 09:00N 48°56' W 125°32'0 0.0
2017-Jun-18 08:30N 48°56' W 125°32'0 0.0
2017-Jun-18 08:00N 48°56' W 125°32'0 0.0
2017-Jun-18 07:30N 48°56' W 125°32'1 2.7
2017-Jun-18 07:00N 48°55' W 125°33'4 8.2
2017-Jun-18 06:30N 48°57' W 125°39'4 8.1
2017-Jun-18 06:00N 48°58' W 125°45'4 8.0
2017-Jun-18 05:30N 48°59' W 125°50'4 8.3
2017-Jun-18 05:00N 49°01' W 125°56'4 8.0
2017-Jun-18 04:30N 49°02' W 126°02'4 7.7
2017-Jun-18 04:00N 49°04' W 126°07'4 7.7
2017-Jun-18 03:30N 49°05' W 126°13'4 7.7
2017-Jun-18 03:00N 49°07' W 126°18'4 7.6
2017-Jun-18 02:30N 49°08' W 126°24'4 7.4
2017-Jun-18 02:00N 49°09' W 126°29'4 7.3
2017-Jun-18 01:30N 49°11' W 126°34'4 7.4
2017-Jun-18 01:00N 49°12' W 126°39'4 7.7
2017-Jun-18 00:30N 49°14' W 126°45'4 7.9
2017-Jun-18 00:00N 49°15' W 126°51'4 8.0
2017-Jun-17 23:29N 49°15' W 126°57'4 6.7
2017-Jun-17 22:57N 49°16' W 127°02'18 1.5
2017-Jun-17 11:02N 49°08' W 126°38'5 9.7
2017-Jun-17 10:32N 49°07' W 126°31'0 9.6
2017-Jun-17 10:30N 49°07' W 126°31'5 9.5
2017-Jun-17 09:59N 49°05' W 126°24'4 9.3
2017-Jun-17 09:30N 49°04' W 126°17'4 9.0
2017-Jun-17 09:00N 49°02' W 126°11'4 8.7
2017-Jun-17 08:30N 49°01' W 126°04'4 8.5
2017-Jun-17 08:00N 48°60' W 125°58'4 8.7
2017-Jun-17 07:30N 48°58' W 125°52'4 8.8
2017-Jun-17 07:00N 48°57' W 125°46'4 8.6
2017-Jun-17 06:30N 48°56' W 125°39'4 8.3
2017-Jun-17 06:00N 48°55' W 125°33'  

Dump ship's entire track history